createdAt,value
2023-04-17T00:00:10.964Z,14.61
2023-04-17T00:02:58.609Z,14.92
2023-04-17T00:05:26.889Z,15.02
2023-04-17T00:07:54.611Z,14.99
2023-04-17T00:10:22.602Z,15.17
2023-04-17T00:12:50.147Z,15.11
2023-04-17T00:15:17.947Z,15.18
2023-04-17T00:17:45.518Z,15.06
2023-04-17T00:20:13.676Z,14.80
2023-04-17T00:22:41.361Z,14.87
2023-04-17T00:25:11.786Z,14.76
2023-04-17T00:27:39.365Z,14.78
2023-04-17T00:30:07.848Z,14.64
2023-04-17T00:32:35.904Z,14.76
2023-04-17T00:35:03.840Z,14.60
2023-04-17T00:37:31.375Z,14.53
2023-04-17T00:39:59.279Z,14.59
2023-04-17T00:42:27.285Z,14.61
2023-04-17T00:44:55.380Z,14.82
2023-04-17T00:47:23.137Z,14.71
2023-04-17T00:49:51.699Z,14.55
2023-04-17T00:52:24.291Z,14.41
2023-04-17T00:54:52.122Z,14.73
2023-04-17T00:57:19.823Z,14.41
2023-04-17T00:59:48.442Z,14.42
2023-04-17T01:02:17.034Z,14.67
2023-04-17T01:04:45.108Z,14.64
2023-04-17T01:07:12.650Z,14.29
2023-04-17T01:09:41.207Z,14.14
2023-04-17T01:12:16.055Z,14.24
2023-04-17T01:14:43.954Z,14.39
2023-04-17T01:17:14.677Z,14.17
2023-04-17T01:19:42.926Z,14.34
2023-04-17T01:22:10.526Z,14.39
2023-04-17T01:24:38.949Z,14.53
2023-04-17T01:27:07.181Z,14.24
2023-04-17T01:29:36.525Z,14.08
2023-04-17T01:32:04.158Z,14.02
2023-04-17T01:34:32.089Z,14.01
2023-04-17T01:36:59.806Z,13.98
2023-04-17T01:39:27.826Z,14.13
2023-04-17T01:41:55.496Z,13.98
2023-04-17T01:44:23.736Z,13.89
2023-04-17T01:46:51.457Z,13.84
2023-04-17T01:49:19.819Z,13.93
2023-04-17T01:51:47.355Z,14.30
2023-04-17T01:54:17.848Z,14.25
2023-04-17T01:56:45.426Z,14.12
2023-04-17T01:59:13.695Z,14.06
2023-04-17T02:01:41.484Z,13.97
2023-04-17T02:04:09.658Z,14.05
2023-04-17T02:06:37.468Z,13.93
2023-04-17T02:09:06.311Z,14.03
2023-04-17T02:11:36.909Z,13.80
2023-04-17T02:14:04.885Z,14.01
2023-04-17T02:16:32.516Z,14.11
2023-04-17T02:19:00.568Z,14.15
2023-04-17T02:21:28.485Z,13.97
2023-04-17T02:23:58.065Z,14.07
2023-04-17T02:26:29.149Z,14.03
2023-04-17T02:28:57.006Z,14.03
2023-04-17T02:31:24.602Z,13.95
2023-04-17T02:33:52.751Z,13.71
2023-04-17T02:36:20.447Z,14.03
2023-04-17T02:38:48.369Z,13.91
2023-04-17T02:41:16.074Z,13.79
2023-04-17T02:43:44.936Z,13.80
2023-04-17T02:46:12.498Z,13.80
2023-04-17T02:48:40.493Z,13.86
2023-04-17T02:51:08.029Z,14.15
2023-04-17T02:53:36.062Z,13.98
2023-04-17T02:56:03.983Z,13.70
2023-04-17T02:58:34.299Z,13.95
2023-04-17T03:01:03.069Z,13.80
2023-04-17T03:03:35.608Z,13.94
2023-04-17T03:06:09.392Z,13.83
2023-04-17T03:08:38.977Z,13.85
2023-04-17T03:11:06.963Z,13.82
2023-04-17T03:13:36.998Z,13.85
2023-04-17T03:16:05.296Z,13.79
2023-04-17T03:18:36.162Z,13.77
2023-04-17T03:21:03.749Z,13.63
2023-04-17T03:23:31.934Z,13.68
2023-04-17T03:25:59.439Z,13.73
2023-04-17T03:28:28.570Z,13.83
2023-04-17T03:30:59.664Z,14.03
2023-04-17T03:33:27.690Z,13.83
2023-04-17T03:35:58.123Z,13.75
2023-04-17T03:38:26.025Z,13.92
2023-04-17T03:40:54.985Z,14.08
2023-04-17T03:43:25.697Z,13.95
2023-04-17T03:45:53.262Z,13.69
2023-04-17T03:48:22.294Z,13.89
2023-04-17T03:50:51.964Z,13.85
2023-04-17T03:53:20.242Z,13.73
2023-04-17T03:55:49.722Z,13.74
2023-04-17T03:58:26.672Z,13.87
2023-04-17T04:00:55.845Z,13.89
2023-04-17T04:03:27.513Z,13.75
2023-04-17T04:05:55.566Z,13.93
2023-04-17T04:08:23.726Z,14.02
2023-04-17T04:10:53.327Z,14.00
2023-04-17T04:13:34.745Z,14.04
2023-04-17T04:16:04.260Z,13.95
2023-04-17T04:18:35.409Z,14.03
2023-04-17T04:21:04.290Z,14.05
2023-04-17T04:23:38.057Z,13.96
2023-04-17T04:26:05.866Z,13.83
2023-04-17T04:28:49.149Z,13.82
2023-04-17T04:31:26.109Z,13.78
2023-04-17T04:33:55.646Z,13.92
2023-04-17T04:36:24.201Z,13.71
2023-04-17T04:39:07.441Z,14.02
2023-04-17T04:41:38.547Z,14.15
2023-04-17T04:44:09.724Z,14.15
2023-04-17T04:46:39.717Z,13.96
2023-04-17T04:49:07.836Z,13.77
2023-04-17T04:51:36.436Z,13.50
2023-04-17T04:54:07.808Z,13.57
2023-04-17T04:56:45.244Z,13.60
2023-04-17T04:59:15.124Z,13.69
2023-04-17T05:01:49.501Z,14.02
2023-04-17T05:04:20.450Z,14.41
2023-04-17T05:06:52.301Z,14.53
2023-04-17T05:09:20.619Z,14.30
2023-04-17T05:11:50.010Z,14.53
2023-04-17T05:14:17.827Z,14.74
2023-04-17T05:16:45.616Z,14.84
2023-04-17T05:19:15.873Z,14.80
2023-04-17T05:21:53.560Z,14.50
2023-04-17T05:24:23.347Z,14.49
2023-04-17T05:26:51.109Z,14.48
2023-04-17T05:29:19.528Z,14.47
2023-04-17T05:31:47.645Z,14.62
2023-04-17T05:34:38.812Z,14.73
2023-04-17T05:37:07.291Z,14.84
2023-04-17T05:39:35.141Z,14.79
2023-04-17T05:42:03.209Z,14.87
2023-04-17T05:44:32.218Z,14.83
2023-04-17T05:47:03.853Z,14.77
2023-04-17T05:49:31.983Z,15.08
2023-04-17T05:51:59.728Z,15.37
2023-04-17T05:54:30.557Z,15.34
2023-04-17T05:56:59.139Z,15.50
2023-04-17T05:59:27.568Z,15.38
2023-04-17T06:01:55.434Z,15.49
2023-04-17T06:04:24.064Z,15.48
2023-04-17T06:06:52.829Z,15.50
2023-04-17T06:09:23.467Z,15.21
2023-04-17T06:11:52.196Z,14.95
2023-04-17T06:14:20.103Z,15.13
2023-04-17T06:16:48.590Z,15.32
2023-04-17T06:19:18.278Z,15.41
2023-04-17T06:21:45.984Z,15.37
2023-04-17T06:24:13.958Z,15.39
2023-04-17T06:26:46.709Z,15.42
2023-04-17T06:29:15.834Z,15.49
2023-04-17T06:31:44.537Z,15.56
2023-04-17T06:34:13.400Z,15.46
2023-04-17T06:36:45.372Z,15.51
2023-04-17T06:39:16.507Z,15.42
2023-04-17T06:41:44.403Z,15.38
2023-04-17T06:44:13.475Z,15.64
2023-04-17T06:46:46.707Z,15.49
2023-04-17T06:49:14.997Z,15.93
2023-04-17T06:51:46.003Z,16.27
2023-04-17T06:54:14.335Z,16.41
2023-04-17T06:56:41.846Z,16.95
2023-04-17T06:59:10.315Z,16.97
2023-04-17T07:01:40.484Z,17.19
2023-04-17T07:04:09.706Z,17.05
2023-04-17T07:06:38.634Z,17.08
2023-04-17T07:09:06.576Z,17.25
2023-04-17T07:11:34.178Z,17.41
2023-04-17T07:14:02.073Z,17.46
2023-04-17T07:16:29.689Z,17.27
2023-04-17T07:18:57.844Z,17.24
2023-04-17T07:21:27.034Z,17.51
2023-04-17T07:23:54.982Z,17.47
2023-04-17T07:26:22.859Z,17.65
2023-04-17T07:28:51.246Z,17.78
2023-04-17T07:31:18.914Z,17.83
2023-04-17T07:33:47.135Z,17.84
2023-04-17T07:36:14.840Z,17.74
2023-04-17T07:38:42.661Z,17.83
2023-04-17T07:41:11.822Z,18.04
2023-04-17T07:43:39.736Z,17.94
2023-04-17T07:46:07.302Z,17.99
2023-04-17T07:48:35.256Z,18.29
2023-04-17T07:51:02.831Z,18.11
2023-04-17T07:53:31.065Z,18.32
2023-04-17T07:55:58.730Z,18.49
2023-04-17T07:58:27.382Z,18.55
2023-04-17T08:00:55.006Z,18.88
2023-04-17T08:03:24.344Z,19.20
2023-04-17T08:05:52.371Z,19.53
2023-04-17T08:08:20.201Z,19.46
2023-04-17T08:10:47.754Z,19.74
2023-04-17T08:13:15.881Z,20.08
2023-04-17T08:15:44.149Z,19.95
2023-04-17T08:18:12.031Z,20.11
2023-04-17T08:20:40.176Z,20.38
2023-04-17T08:23:07.976Z,20.44
2023-04-17T08:25:35.589Z,20.27
2023-04-17T08:28:03.369Z,20.16
2023-04-17T08:30:30.948Z,20.17
2023-04-17T08:32:59.008Z,20.30
2023-04-17T08:35:26.905Z,20.20
2023-04-17T08:37:56.951Z,20.22
2023-04-17T08:40:26.380Z,20.17
2023-04-17T08:42:54.538Z,20.27
2023-04-17T08:45:24.336Z,20.10
2023-04-17T08:47:52.368Z,20.12
2023-04-17T08:50:22.080Z,20.10
2023-04-17T08:52:50.655Z,20.31
2023-04-17T08:55:22.645Z,20.09
2023-04-17T08:58:06.285Z,20.25
2023-04-17T09:00:35.966Z,20.17
2023-04-17T09:03:05.160Z,19.83
2023-04-17T09:05:33.735Z,20.16
2023-04-17T09:08:09.320Z,19.97
2023-04-17T09:10:45.148Z,20.13
2023-04-17T09:13:16.578Z,20.29
2023-04-17T09:15:46.590Z,19.80
2023-04-17T09:18:25.077Z,20.02
2023-04-17T09:20:53.299Z,20.09
2023-04-17T09:23:22.897Z,19.78
2023-04-17T09:26:07.992Z,19.66
2023-04-17T09:28:35.860Z,19.24
2023-04-17T09:31:05.706Z,19.08
2023-04-17T09:33:33.446Z,18.82
2023-04-17T09:36:21.870Z,19.01
2023-04-17T09:38:49.905Z,19.01
2023-04-17T09:41:23.680Z,18.98
2023-04-17T09:43:53.801Z,19.16
2023-04-17T09:46:31.343Z,19.35
2023-04-17T09:49:02.391Z,19.46
2023-04-17T09:51:30.832Z,19.37
2023-04-17T09:53:59.523Z,19.58
2023-04-17T09:56:29.748Z,19.41
2023-04-17T09:58:57.760Z,19.76
2023-04-17T10:01:25.849Z,19.84
2023-04-17T10:03:53.743Z,20.15
2023-04-17T10:06:21.659Z,20.61
2023-04-17T10:08:49.567Z,20.59
2023-04-17T10:11:17.747Z,21.78
2023-04-17T10:13:47.455Z,21.69
2023-04-17T10:16:15.499Z,22.04
2023-04-17T10:18:42.996Z,22.27
2023-04-17T10:21:22.184Z,22.24
2023-04-17T10:23:49.806Z,21.69
2023-04-17T10:26:26.633Z,22.40
2023-04-17T10:28:55.150Z,22.51
2023-04-17T10:31:25.643Z,22.75
2023-04-17T10:33:54.504Z,23.56
2023-04-17T10:36:40.896Z,24.16
2023-04-17T10:39:15.226Z,24.91
2023-04-17T10:42:03.375Z,23.74
2023-04-17T10:44:34.566Z,23.80
2023-04-17T10:47:07.088Z,24.76
2023-04-17T10:49:50.813Z,25.00
2023-04-17T10:52:45.124Z,23.39
2023-04-17T10:55:16.451Z,22.90
2023-04-17T10:57:57.009Z,22.58
2023-04-17T11:00:29.632Z,23.14
2023-04-17T11:02:58.407Z,23.68
2023-04-17T11:05:25.959Z,24.02
2023-04-17T11:07:53.927Z,25.20
2023-04-17T11:10:23.223Z,25.42
2023-04-17T11:12:56.966Z,25.94
2023-04-17T11:15:28.290Z,24.77
2023-04-17T11:17:56.805Z,24.51
2023-04-17T11:20:25.197Z,24.32
2023-04-17T11:22:53.432Z,25.68
2023-04-17T11:25:21.528Z,25.62
2023-04-17T11:27:55.274Z,24.80
2023-04-17T11:30:27.699Z,24.56
2023-04-17T11:32:57.542Z,24.76
2023-04-17T11:35:32.250Z,24.88
2023-04-17T11:38:14.041Z,24.05
2023-04-17T11:40:45.598Z,23.65
2023-04-17T11:43:13.857Z,25.17
2023-04-17T11:45:43.129Z,24.88
2023-04-17T11:48:12.201Z,24.15
2023-04-17T11:50:41.138Z,24.19
2023-04-17T11:53:09.269Z,23.94
2023-04-17T11:55:36.831Z,23.09
2023-04-17T11:58:06.494Z,24.60
2023-04-17T12:00:34.548Z,24.89
2023-04-17T12:03:03.322Z,24.70
2023-04-17T12:05:31.236Z,24.69
2023-04-17T12:08:04.760Z,23.26
2023-04-17T12:10:42.579Z,23.38
2023-04-17T12:13:11.331Z,22.83
2023-04-17T12:15:39.154Z,22.69
2023-04-17T12:18:08.792Z,23.25
2023-04-17T12:20:36.861Z,22.90
2023-04-17T12:23:06.053Z,22.13
2023-04-17T12:25:33.894Z,22.19
2023-04-17T12:28:05.072Z,23.00
2023-04-17T12:30:36.148Z,22.96
2023-04-17T12:33:04.155Z,23.04
2023-04-17T12:35:31.795Z,22.15
2023-04-17T12:37:59.724Z,22.96
2023-04-17T12:40:27.350Z,22.88
2023-04-17T12:42:55.270Z,23.43
2023-04-17T12:45:22.939Z,23.09
2023-04-17T12:47:51.253Z,22.75
2023-04-17T12:50:18.890Z,22.54
2023-04-17T12:52:46.840Z,23.58
2023-04-17T12:55:14.432Z,22.46
2023-04-17T12:57:42.450Z,23.21
2023-04-17T13:00:11.287Z,22.77
2023-04-17T13:02:39.411Z,23.08
2023-04-17T13:05:07.590Z,22.99
2023-04-17T13:07:35.526Z,23.21
2023-04-17T13:10:03.184Z,22.87
2023-04-17T13:12:31.049Z,22.65
2023-04-17T13:14:59.152Z,22.70
2023-04-17T13:17:27.069Z,21.76
2023-04-17T13:19:54.624Z,21.61
2023-04-17T13:22:22.527Z,22.04
2023-04-17T13:24:50.076Z,22.60
2023-04-17T13:27:17.989Z,22.82
2023-04-17T13:29:45.622Z,22.84
2023-04-17T13:32:13.685Z,22.60
2023-04-17T13:34:41.245Z,22.34
2023-04-17T13:37:10.375Z,21.91
2023-04-17T13:39:38.279Z,22.21
2023-04-17T13:42:06.242Z,22.47
2023-04-17T13:44:33.876Z,22.30
2023-04-17T13:47:03.969Z,23.33
2023-04-17T13:49:31.523Z,22.82
2023-04-17T13:51:59.489Z,22.06
2023-04-17T13:54:27.059Z,21.87
2023-04-17T13:56:54.926Z,21.72
2023-04-17T13:59:22.507Z,22.16
2023-04-17T14:01:50.481Z,22.68
2023-04-17T14:04:18.297Z,21.86
2023-04-17T14:06:49.714Z,21.90
2023-04-17T14:09:17.465Z,22.25
2023-04-17T14:11:45.471Z,21.83
2023-04-17T14:14:13.074Z,21.47
2023-04-17T14:16:41.310Z,21.67
2023-04-17T14:19:14.098Z,21.82
2023-04-17T14:21:42.975Z,21.57
2023-04-17T14:24:10.716Z,21.64
2023-04-17T14:26:38.758Z,21.25
2023-04-17T14:29:06.398Z,21.16
2023-04-17T14:31:36.536Z,21.47
2023-04-17T14:34:04.295Z,21.31
2023-04-17T14:36:32.247Z,21.90
2023-04-17T14:38:59.907Z,22.11
2023-04-17T14:41:30.160Z,21.70
2023-04-17T14:43:57.829Z,21.36
2023-04-17T14:46:26.025Z,20.89
2023-04-17T14:48:56.534Z,21.40
2023-04-17T14:51:24.443Z,21.58
2023-04-17T14:53:53.113Z,21.63
2023-04-17T14:56:22.015Z,21.92
2023-04-17T14:58:49.776Z,21.72
2023-04-17T15:01:17.927Z,21.58
2023-04-17T15:03:48.197Z,21.46
2023-04-17T15:06:16.990Z,21.72
2023-04-17T15:08:46.512Z,22.17
2023-04-17T15:11:14.343Z,22.28
2023-04-17T15:13:42.148Z,21.56
2023-04-17T15:16:11.035Z,21.35
2023-04-17T15:18:39.780Z,21.72
2023-04-17T15:21:07.808Z,21.67
2023-04-17T15:23:35.789Z,21.64
2023-04-17T15:26:03.683Z,22.10
2023-04-17T15:28:31.353Z,21.75
2023-04-17T15:30:59.210Z,21.52
2023-04-17T15:33:26.833Z,21.47
2023-04-17T15:35:56.408Z,21.12
2023-04-17T15:38:24.285Z,21.14
2023-04-17T15:40:52.317Z,21.28
2023-04-17T15:43:20.457Z,21.22
2023-04-17T15:45:48.702Z,21.08
2023-04-17T15:48:16.760Z,21.25
2023-04-17T15:50:46.398Z,21.14
2023-04-17T15:53:14.537Z,20.89
2023-04-17T15:55:43.536Z,20.84
2023-04-17T15:58:11.255Z,21.15
2023-04-17T16:00:40.150Z,20.89
2023-04-17T16:03:08.143Z,21.01
2023-04-17T16:05:36.253Z,20.94
2023-04-17T16:08:03.906Z,20.64
2023-04-17T16:10:31.834Z,21.37
2023-04-17T16:12:59.435Z,20.77
2023-04-17T16:15:28.023Z,20.18
2023-04-17T16:17:55.641Z,20.64
2023-04-17T16:20:24.822Z,20.58
2023-04-17T16:22:52.505Z,20.74
2023-04-17T16:25:20.997Z,20.83
2023-04-17T16:27:48.984Z,21.07
2023-04-17T16:30:17.670Z,20.58
2023-04-17T16:32:45.721Z,20.43
2023-04-17T16:35:13.704Z,20.54
2023-04-17T16:37:41.284Z,20.45
2023-04-17T16:40:09.485Z,20.56
2023-04-17T16:42:38.367Z,20.41
2023-04-17T16:45:07.544Z,20.33
2023-04-17T16:47:35.257Z,20.43
2023-04-17T16:50:03.993Z,20.33
2023-04-17T16:52:31.771Z,20.54
2023-04-17T16:54:59.726Z,20.35
2023-04-17T16:57:27.456Z,20.69
2023-04-17T16:59:55.647Z,20.38
2023-04-17T17:02:23.437Z,20.22
2023-04-17T17:04:51.673Z,20.48
2023-04-17T17:07:19.954Z,20.57
2023-04-17T17:09:48.064Z,20.12
2023-04-17T17:12:15.674Z,20.26
2023-04-17T17:14:44.764Z,19.96
2023-04-17T17:17:12.434Z,19.88
2023-04-17T17:19:40.804Z,19.99
2023-04-17T17:22:08.529Z,20.33
2023-04-17T17:24:36.460Z,20.48
2023-04-17T17:27:04.161Z,20.54
2023-04-17T17:29:32.403Z,20.16
2023-04-17T17:32:00.165Z,20.41
2023-04-17T17:34:30.441Z,20.39
2023-04-17T17:36:58.726Z,20.28
2023-04-17T17:39:26.935Z,20.56
2023-04-17T17:41:56.336Z,20.74
2023-04-17T17:44:24.473Z,20.22
2023-04-17T17:46:52.145Z,20.52
2023-04-17T17:49:20.067Z,20.50
2023-04-17T17:51:47.681Z,20.65
2023-04-17T17:54:15.669Z,20.65
2023-04-17T17:56:43.318Z,20.12
2023-04-17T17:59:11.574Z,20.46
2023-04-17T18:01:40.438Z,20.20
2023-04-17T18:04:08.983Z,20.25
2023-04-17T18:06:36.954Z,20.15
2023-04-17T18:09:05.135Z,20.40
2023-04-17T18:11:32.746Z,19.73
2023-04-17T18:14:00.928Z,19.93
2023-04-17T18:16:31.644Z,20.27
2023-04-17T18:19:02.074Z,20.28
2023-04-17T18:21:31.054Z,20.05
2023-04-17T18:23:59.103Z,19.83
2023-04-17T18:26:26.738Z,19.96
2023-04-17T18:28:56.663Z,19.97
2023-04-17T18:31:26.622Z,19.75
2023-04-17T18:33:54.820Z,19.53
2023-04-17T18:36:22.680Z,19.88
2023-04-17T18:38:50.767Z,19.78
2023-04-17T18:41:18.713Z,19.86
2023-04-17T18:43:47.741Z,19.97
2023-04-17T18:46:18.460Z,19.72
2023-04-17T18:48:46.638Z,19.61
2023-04-17T18:51:14.916Z,19.61
2023-04-17T18:53:44.215Z,19.69
2023-04-17T18:56:16.420Z,19.31
2023-04-17T18:58:46.164Z,19.43
2023-04-17T19:01:14.487Z,19.35
2023-04-17T19:03:43.586Z,19.51
2023-04-17T19:06:12.198Z,19.69
2023-04-17T19:08:42.426Z,19.69
2023-04-17T19:11:10.208Z,19.51
2023-04-17T19:13:38.937Z,19.67
2023-04-17T19:16:07.669Z,19.54
2023-04-17T19:18:37.152Z,19.54
2023-04-17T19:21:05.045Z,19.57
2023-04-17T19:23:34.159Z,19.55
2023-04-17T19:26:02.028Z,19.63
2023-04-17T19:28:30.738Z,19.44
2023-04-17T19:31:00.326Z,19.33
2023-04-17T19:33:29.949Z,19.41
2023-04-17T19:35:59.561Z,19.41
2023-04-17T19:38:29.818Z,19.48
2023-04-17T19:41:20.230Z,19.46
2023-04-17T19:43:55.443Z,19.16
2023-04-17T19:46:25.508Z,19.23
2023-04-17T19:48:54.931Z,19.18
2023-04-17T19:51:24.138Z,19.07
2023-04-17T19:53:56.985Z,19.12
2023-04-17T19:56:25.160Z,19.12
2023-04-17T19:58:53.618Z,19.13
2023-04-17T20:01:22.274Z,19.05
2023-04-17T20:03:51.799Z,19.06
2023-04-17T20:06:20.765Z,18.91
2023-04-17T20:08:51.320Z,18.76
2023-04-17T20:11:20.060Z,18.81
2023-04-17T20:13:49.236Z,18.77
2023-04-17T20:16:17.984Z,18.73
2023-04-17T20:18:47.411Z,18.54
2023-04-17T20:21:16.079Z,18.51
2023-04-17T20:23:45.062Z,18.43
2023-04-17T20:26:13.456Z,18.51
2023-04-17T20:28:42.490Z,18.29
2023-04-17T20:31:11.287Z,18.34
2023-04-17T20:33:40.284Z,18.13
2023-04-17T20:36:08.326Z,18.02
2023-04-17T20:38:36.728Z,18.24
2023-04-17T20:41:04.709Z,18.01
2023-04-17T20:43:33.164Z,18.23
2023-04-17T20:46:01.028Z,18.15
2023-04-17T20:48:29.277Z,18.11
2023-04-17T20:50:57.211Z,18.02
2023-04-17T20:53:25.192Z,17.97
2023-04-17T20:55:52.969Z,17.94
2023-04-17T20:58:21.210Z,17.98
2023-04-17T21:03:22.570Z,17.91
2023-04-17T21:05:50.525Z,17.76
2023-04-17T21:08:18.879Z,17.63
2023-04-17T21:10:46.671Z,17.94
2023-04-17T21:13:14.785Z,17.68
2023-04-17T21:15:42.606Z,17.69
2023-04-17T21:18:11.674Z,17.71
2023-04-17T21:20:39.609Z,17.51
2023-04-17T21:23:07.785Z,17.45
2023-04-17T21:25:36.100Z,17.48
2023-04-17T21:28:04.215Z,17.53
2023-04-17T21:30:32.127Z,17.39
2023-04-17T21:33:00.252Z,17.56
2023-04-17T21:35:28.141Z,17.56
2023-04-17T21:37:56.190Z,17.35
2023-04-17T21:40:23.912Z,17.29
2023-04-17T21:42:52.040Z,17.26
2023-04-17T21:45:20.210Z,17.31
2023-04-17T21:47:48.283Z,17.14
2023-04-17T21:50:16.208Z,17.27
2023-04-17T21:52:44.635Z,17.15
2023-04-17T21:55:12.325Z,17.40
2023-04-17T21:58:18.222Z,17.21
2023-04-17T22:00:51.155Z,17.17
2023-04-17T22:03:19.524Z,17.19
2023-04-17T22:05:51.135Z,17.21
2023-04-17T22:08:19.522Z,17.08
2023-04-17T22:10:47.557Z,17.09
2023-04-17T22:13:16.353Z,17.05
2023-04-17T22:15:44.567Z,17.02
2023-04-17T22:18:13.168Z,17.14
2023-04-17T22:20:41.185Z,17.34
2023-04-17T22:23:09.549Z,17.12
2023-04-17T22:25:37.446Z,17.23
2023-04-17T22:28:05.782Z,17.46
2023-04-17T22:30:33.610Z,17.23
2023-04-17T22:33:02.012Z,17.40
2023-04-17T22:35:30.026Z,17.04
2023-04-17T22:37:58.498Z,17.02
2023-04-17T22:40:26.345Z,17.12
2023-04-17T22:42:54.666Z,16.97
2023-04-17T22:45:22.696Z,17.10
2023-04-17T22:47:51.083Z,16.97
2023-04-17T22:50:19.132Z,16.92
2023-04-17T22:52:47.555Z,16.79
2023-04-17T22:55:15.948Z,16.98
2023-04-17T22:57:44.317Z,17.04
2023-04-17T23:00:12.842Z,16.98
2023-04-17T23:02:42.131Z,16.71
2023-04-17T23:05:10.148Z,16.96
2023-04-17T23:07:39.693Z,16.80
2023-04-17T23:10:07.780Z,16.82
2023-04-17T23:12:36.163Z,16.65
2023-04-17T23:15:04.289Z,16.71
2023-04-17T23:17:33.587Z,16.52
2023-04-17T23:20:01.711Z,16.56
2023-04-17T23:22:30.063Z,16.70
2023-04-17T23:24:58.288Z,16.76
2023-04-17T23:27:26.600Z,16.64
2023-04-17T23:29:54.521Z,16.88
2023-04-17T23:32:22.819Z,16.56
2023-04-17T23:34:51.288Z,16.68
2023-04-17T23:37:19.803Z,16.51
2023-04-17T23:39:47.858Z,16.18
2023-04-17T23:42:16.679Z,16.32
2023-04-17T23:44:44.686Z,16.30
2023-04-17T23:47:14.154Z,16.36
2023-04-17T23:49:42.137Z,16.34
2023-04-17T23:52:10.460Z,16.41
2023-04-17T23:54:38.362Z,16.35
2023-04-17T23:57:06.774Z,16.47
2023-04-17T23:59:34.627Z,16.27
